North Wildwood, New Jersey
Current Conditions -  °F | °C
As of 3:15 PM on Wednesday 26 Nov 2014 (Local Time) from KWWD Reporting Station
Overcast Overcast  
Wind Chill: 30°   Ceiling: 1600
Heat Index: 39°   Visibility: 10mi
Dew Point: 34°   Wind: 18mph
Humidity: 81%   Direction: 10°N
Pressure: 29.7"   Gusts: 25mph
Location:  38.9808°N, 74.8281°W
Report Text: KWWD 262015Z AUTO 01016G22KT 10SM FEW010 BKN016 OVC037 04/01 A2970 RMK AO1 P0001
Loading
Personal Weather Stations






























Interactive Weather Map New forecast layout! Learn more

10-Day Weather Forecast

Advertisements
Track Severe Weather on mobile